Time;durP1;ratioP1;P1;durP2;ratioP2;P2;SDS_P1;SDS_P2;PMS_P1;PMS_P2;Temp;Humidity;BMP_temperature;BMP_pressure;BME280_temperature;BME280_humidity;BME280_pressure;Samples;Min_cycle;Max_cycle;Signal;HPM_P1;HPM_P2
2021/11/17 02:27:53;;;;;;;7.80;7.00;;;7.90;99.90;;;;;;5092774;28;20240;-69
2021/11/17 02:30:45;;;;;;;7.80;7.07;;;7.90;99.90;;;;;;5087939;28;20209;-69
2021/11/17 02:33:36;;;;;;;8.05;7.25;;;7.90;99.90;;;;;;5100607;28;20212;-69
2021/11/17 02:36:21;;;;;;;8.43;7.03;;;7.90;99.90;;;;;;5100414;28;20246;-69
2021/11/17 02:39:07;;;;;;;8.35;6.72;;;8.00;99.90;;;;;;5100204;28;20238;-69
2021/11/17 02:41:57;;;;;;;9.52;7.10;;;7.90;99.90;;;;;;5090605;28;20228;-69
2021/11/17 02:44:41;;;;;;;8.90;7.82;;;7.90;99.90;;;;;;5090261;28;20212;-69
2021/11/17 02:47:38;;;;;;;9.10;7.95;;;8.00;99.90;;;;;;5092623;28;20671;-69
2021/11/17 02:50:24;;;;;;;8.98;8.07;;;8.00;99.90;;;;;;5089464;28;20278;-69
2021/11/17 02:53:07;;;;;;;18.70;11.50;;;8.10;99.90;;;;;;5106059;28;20266;-69
2021/11/17 02:55:53;;;;;;;11.82;10.40;;;8.00;99.90;;;;;;5090414;28;20212;-69
2021/11/17 02:58:41;;;;;;;13.05;10.10;;;8.00;99.90;;;;;;5096637;28;20596;-69
2021/11/17 03:01:52;;;;;;;13.00;9.95;;;8.00;99.90;;;;;;5089190;28;20224;-69
2021/11/17 03:04:47;;;;;;;13.45;10.77;;;8.00;99.90;;;;;;5078023;28;20645;-70
2021/11/17 03:07:45;;;;;;;14.55;12.27;;;8.00;99.90;;;;;;5087900;28;20219;-69
2021/11/17 03:10:42;;;;;;;16.92;14.52;;;8.10;99.90;;;;;;5087349;28;20226;-70
2021/11/17 03:13:31;;;;;;;14.80;13.50;;;8.10;99.90;;;;;;5079544;28;20212;-71
2021/11/17 03:16:24;;;;;;;16.88;14.80;;;8.20;99.90;;;;;;5085182;28;20300;-70
2021/11/17 03:19:11;;;;;;;18.48;14.07;;;8.10;99.90;;;;;;5084977;28;20212;-70
2021/11/17 03:21:57;;;;;;;15.60;14.00;;;8.10;99.90;;;;;;5085157;28;20240;-70
2021/11/17 03:24:48;;;;;;;15.18;13.52;;;8.10;99.90;;;;;;5095371;28;20285;-69
2021/11/17 03:27:39;;;;;;;14.25;11.48;;;8.10;99.90;;;;;;5111702;28;20227;-69
2021/11/17 03:30:40;;;;;;;12.88;11.60;;;8.10;99.90;;;;;;5108750;28;20219;-70
2021/11/17 03:33:32;;;;;;;12.02;10.88;;;8.10;99.90;;;;;;5092255;28;20220;-70
2021/11/17 03:36:29;;;;;;;11.38;10.27;;;8.10;99.90;;;;;;5085010;28;20211;-69
2021/11/17 03:39:30;;;;;;;11.90;10.35;;;8.10;99.90;;;;;;5094188;28;20212;-69
2021/11/17 03:42:35;;;;;;;10.88;9.88;;;8.10;99.90;;;;;;5099791;28;20697;-69
2021/11/17 03:45:32;;;;;;;11.15;10.05;;;8.10;99.90;;;;;;5085258;28;20208;-69
2021/11/17 03:48:29;;;;;;;11.48;9.65;;;8.00;99.90;;;;;;5084849;28;20216;-69
2021/11/17 03:51:22;;;;;;;10.18;9.18;;;8.00;99.90;;;;;;5088404;28;20702;-69
2021/11/17 03:54:11;;;;;;;11.57;9.73;;;7.90;99.90;;;;;;5084472;28;20221;-69
2021/11/17 03:56:55;;;;;;;11.35;9.18;;;7.90;99.90;;;;;;5084550;28;20617;-70
2021/11/17 03:59:40;;;;;;;9.57;8.55;;;7.80;99.90;;;;;;5100561;28;20219;-69
2021/11/17 04:02:45;;;;;;;10.73;9.20;;;7.80;99.90;;;;;;5096323;27;20223;-69
2021/11/17 04:05:38;;;;;;;11.30;8.80;;;7.70;99.90;;;;;;5076053;28;20261;-69
2021/11/17 04:08:22;;;;;;;12.00;8.70;;;7.60;99.90;;;;;;5089244;28;20216;-69
2021/11/17 04:11:06;;;;;;;15.02;9.77;;;7.50;99.90;;;;;;5090490;28;20299;-69
2021/11/17 04:13:45;;;;;;;9.82;8.82;;;7.50;99.90;;;;;;5088524;28;20213;-69
2021/11/17 04:16:31;;;;;;;10.20;8.90;;;7.50;99.90;;;;;;5093736;28;20684;-69
2021/11/17 04:19:15;;;;;;;10.32;9.32;;;7.40;99.90;;;;;;5092192;28;20228;-70
2021/11/17 04:22:01;;;;;;;10.70;9.40;;;7.30;99.90;;;;;;5088269;28;20231;-69
2021/11/17 04:24:48;;;;;;;13.93;10.65;;;7.20;99.90;;;;;;5091271;28;20216;-70
2021/11/17 04:27:38;;;;;;;11.38;9.60;;;7.10;99.90;;;;;;5090047;28;20236;-69
2021/11/17 04:30:37;;;;;;;11.73;10.48;;;7.10;99.90;;;;;;5104997;28;20212;-69
2021/11/17 04:33:27;;;;;;;13.02;10.48;;;7.00;99.90;;;;;;5092295;28;20583;-69
2021/11/17 04:36:21;;;;;;;13.80;11.30;;;6.90;99.90;;;;;;5082782;28;20575;-69
2021/11/17 04:39:16;;;;;;;12.55;11.10;;;6.80;99.90;;;;;;5103761;28;20215;-69
2021/11/17 04:42:17;;;;;;;15.02;11.10;;;6.70;99.90;;;;;;5080303;28;20224;-69
2021/11/17 04:45:02;;;;;;;18.02;10.95;;;6.70;99.90;;;;;;5088615;28;20208;-69
2021/11/17 04:47:51;;;;;;;15.82;10.65;;;6.70;99.90;;;;;;5096625;28;20216;-69
2021/11/17 04:50:47;;;;;;;11.52;10.10;;;6.70;99.90;;;;;;5100496;28;20660;-70
2021/11/17 04:53:38;;;;;;;12.15;10.30;;;6.60;99.90;;;;;;5110685;28;20207;-69
2021/11/17 04:56:29;;;;;;;12.05;10.95;;;6.50;99.90;;;;;;5088909;28;20212;-70
2021/11/17 04:59:23;;;;;;;13.65;11.38;;;6.40;99.90;;;;;;5084384;28;20553;-69
2021/11/17 05:02:13;;;;;;;11.95;10.63;;;6.30;99.90;;;;;;5077966;28;20243;-70
2021/11/17 05:05:01;;;;;;;12.45;10.50;;;6.30;99.90;;;;;;5093510;28;20693;-70
2021/11/17 05:07:42;;;;;;;13.68;10.98;;;6.20;99.90;;;;;;5087046;28;20223;-70
2021/11/17 05:10:27;;;;;;;12.38;11.15;;;6.10;99.90;;;;;;5090331;28;20226;-69
2021/11/17 05:13:08;;;;;;;13.60;12.20;;;6.10;99.90;;;;;;5075541;28;20215;-69
2021/11/17 05:15:50;;;;;;;12.27;10.98;;;6.10;99.90;;;;;;5098278;28;20211;-70
2021/11/17 05:18:29;;;;;;;14.95;12.25;;;6.00;99.90;;;;;;5094274;28;20224;-69
2021/11/17 05:21:12;;;;;;;15.23;12.00;;;6.00;99.90;;;;;;5099603;28;20248;-70
2021/11/17 05:24:02;;;;;;;17.60;13.25;;;5.90;99.90;;;;;;5080208;28;20563;-69
2021/11/17 05:26:48;;;;;;;14.02;12.13;;;5.80;99.90;;;;;;5088626;28;20267;-69
2021/11/17 05:29:37;;;;;;;14.13;12.60;;;5.80;99.90;;;;;;5088369;28;20237;-69
2021/11/17 05:32:24;;;;;;;13.60;12.00;;;5.70;99.90;;;;;;5093302;28;20217;-69
2021/11/17 05:35:07;;;;;;;16.40;12.63;;;5.70;99.90;;;;;;5083443;28;20637;-69
2021/11/17 05:37:47;;;;;;;14.05;11.63;;;5.70;99.90;;;;;;5086217;28;20247;-69
2021/11/17 05:40:44;;;;;;;12.32;11.13;;;5.70;99.90;;;;;;5098473;28;20557;-71
2021/11/17 05:43:30;;;;;;;14.07;11.48;;;5.60;99.90;;;;;;5080925;28;20686;-69
2021/11/17 05:46:17;;;;;;;17.13;12.10;;;5.60;99.90;;;;;;5085562;28;20219;-70
2021/11/17 05:49:00;;;;;;;16.08;12.00;;;5.60;99.90;;;;;;5104616;28;20211;-69
2021/11/17 05:51:44;;;;;;;15.13;9.60;;;5.50;99.90;;;;;;5098733;28;20266;-69
2021/11/17 05:54:34;;;;;;;14.00;10.32;;;5.50;99.90;;;;;;5101988;28;20261;-69
2021/11/17 05:57:22;;;;;;;12.18;8.50;;;5.40;99.90;;;;;;5090447;28;20632;-69
2021/11/17 06:00:22;;;;;;;12.38;10.40;;;5.40;99.90;;;;;;5104485;28;20648;-69
2021/11/17 06:03:10;;;;;;;11.70;9.70;;;5.40;99.90;;;;;;5071342;28;20244;-69
2021/11/17 06:05:40;;;;;;;10.60;9.50;;;5.40;99.90;;;;;;5087940;28;20224;-70
2021/11/17 06:08:10;;;;;;;12.10;9.95;;;5.30;99.90;;;;;;5097157;28;20204;-70
2021/11/17 06:10:44;;;;;;;10.68;9.38;;;5.40;99.90;;;;;;5106430;28;20322;-70
2021/11/17 06:13:16;;;;;;;11.95;9.70;;;5.30;99.90;;;;;;5081335;28;20222;-69
2021/11/17 06:15:48;;;;;;;13.73;10.18;;;5.30;99.90;;;;;;5092078;28;20221;-69
2021/11/17 06:18:22;;;;;;;15.68;10.70;;;5.20;99.90;;;;;;5091178;28;20223;-70
2021/11/17 06:20:53;;;;;;;16.85;11.02;;;5.20;99.90;;;;;;5103791;28;20216;-69
2021/11/17 06:23:26;;;;;;;13.77;11.60;;;5.20;99.90;;;;;;5098640;28;20228;-69
2021/11/17 06:25:59;;;;;;;15.13;11.63;;;5.20;99.90;;;;;;5091496;28;20686;-69
2021/11/17 06:28:30;;;;;;;16.80;15.10;;;5.10;99.90;;;;;;5092800;28;20214;-70
2021/11/17 06:31:03;;;;;;;20.52;18.27;;;5.10;99.90;;;;;;5089744;28;20220;-69
2021/11/17 06:33:34;;;;;;;21.95;19.50;;;5.10;99.90;;;;;;5096174;28;20378;-69
2021/11/17 06:36:09;;;;;;;20.92;16.25;;;5.10;99.90;;;;;;5091279;28;20380;-70
2021/11/17 06:38:40;;;;;;;19.17;17.13;;;5.00;99.90;;;;;;5103867;28;20678;-70
2021/11/17 06:41:12;;;;;;;19.88;16.40;;;4.90;99.90;;;;;;5086736;28;20223;-69
2021/11/17 06:43:43;;;;;;;18.60;15.57;;;4.90;99.90;;;;;;5092385;28;20594;-69
2021/11/17 06:46:14;;;;;;;19.08;14.68;;;4.90;99.90;;;;;;5087128;28;20219;-69
2021/11/17 06:48:45;;;;;;;14.15;11.93;;;4.80;99.90;;;;;;5083517;28;20212;-70
2021/11/17 06:51:16;;;;;;;12.70;11.13;;;4.70;99.90;;;;;;5101893;28;20643;-69
2021/11/17 06:53:47;;;;;;;14.98;11.55;;;4.60;99.90;;;;;;5097121;28;20204;-69
2021/11/17 06:56:20;;;;;;;10.77;9.70;;;4.60;99.90;;;;;;5105925;27;20224;-71
2021/11/17 06:58:51;;;;;;;13.55;11.98;;;4.60;99.90;;;;;;5076855;28;20244;-70
2021/11/17 07:01:23;;;;;;;13.95;11.02;;;4.50;99.90;;;;;;5089358;28;20216;-70
2021/11/17 07:03:55;;;;;;;13.50;11.68;;;4.50;99.90;;;;;;5096515;28;20677;-70
2021/11/17 07:06:26;;;;;;;13.25;10.85;;;4.40;99.90;;;;;;5101539;28;20679;-70
2021/11/17 07:08:56;;;;;;;257.42;54.17;;;4.40;99.90;;;;;;5092239;28;20255;-70
2021/11/17 07:11:30;;;;;;;14.48;12.10;;;4.40;99.90;;;;;;5091529;28;20221;-70
2021/11/17 07:14:01;;;;;;;19.80;11.60;;;4.40;99.90;;;;;;5087731;28;20208;-70
2021/11/17 07:16:32;;;;;;;228.68;42.60;;;4.40;99.90;;;;;;5102414;28;20668;-70
2021/11/17 07:19:04;;;;;;;17.17;12.43;;;4.30;99.90;;;;;;5091436;28;20281;-70
2021/11/17 07:21:35;;;;;;;15.50;12.50;;;4.30;99.90;;;;;;5090339;28;20234;-69
2021/11/17 07:24:06;;;;;;;16.20;14.50;;;4.40;99.90;;;;;;5097766;28;20226;-70
2021/11/17 07:26:39;;;;;;;26.50;19.65;;;4.40;99.90;;;;;;5096223;28;20228;-69
2021/11/17 07:29:10;;;;;;;22.85;18.60;;;4.40;99.90;;;;;;5104254;28;20220;-70
2021/11/17 07:31:41;;;;;;;23.48;18.50;;;4.40;99.90;;;;;;5094162;28;20212;-70
2021/11/17 07:34:13;;;;;;;19.73;17.63;;;4.40;99.90;;;;;;5100940;28;20219;-69
2021/11/17 07:36:45;;;;;;;21.20;19.05;;;4.20;99.90;;;;;;5091871;28;20226;-69
2021/11/17 07:39:17;;;;;;;21.90;18.33;;;4.20;99.90;;;;;;5100124;28;20223;-69
2021/11/17 07:41:52;;;;;;;21.20;19.00;;;4.10;99.90;;;;;;5097860;28;20211;-69
2021/11/17 07:44:24;;;;;;;20.13;17.08;;;4.10;99.90;;;;;;5094403;28;20220;-69
2021/11/17 07:46:57;;;;;;;27.55;17.77;;;4.00;99.90;;;;;;5104972;27;20583;-70
2021/11/17 07:49:29;;;;;;;15.20;13.50;;;4.00;99.90;;;;;;5090675;28;20684;-69
2021/11/17 07:52:00;;;;;;;17.77;13.13;;;4.00;99.90;;;;;;5089688;28;20213;-69
2021/11/17 07:54:31;;;;;;;14.07;12.23;;;4.00;99.90;;;;;;5091384;28;20232;-70
2021/11/17 07:57:04;;;;;;;14.48;12.15;;;3.90;99.90;;;;;;5101485;28;20218;-70
2021/11/17 07:59:36;;;;;;;15.50;12.85;;;3.90;99.90;;;;;;5092388;28;20211;-70
2021/11/17 08:02:11;;;;;;;17.40;13.05;;;3.80;99.90;;;;;;5090200;28;20234;-69
2021/11/17 08:04:44;;;;;;;14.45;12.93;;;3.80;99.90;;;;;;5110608;28;20238;-69
2021/11/17 08:07:18;;;;;;;17.48;13.73;;;3.80;99.90;;;;;;5086094;28;20275;-69
2021/11/17 08:09:51;;;;;;;165.55;38.38;;;3.70;99.90;;;;;;5091423;28;20222;-69
2021/11/17 08:12:23;;;;;;;1999.90;581.92;;;3.70;99.90;;;;;;5091281;28;20218;-69
2021/11/17 08:14:54;;;;;;;1999.90;716.50;;;3.80;99.90;;;;;;5111078;28;20214;-69
2021/11/17 08:17:26;;;;;;;23.45;13.52;;;3.90;99.90;;;;;;5095269;27;20214;-70
2021/11/17 08:19:56;;;;;;;16.55;13.25;;;3.90;99.90;;;;;;5096006;28;20595;-71
2021/11/17 08:22:27;;;;;;;15.80;12.70;;;3.70;99.90;;;;;;5101393;28;20304;-69
2021/11/17 08:24:58;;;;;;;18.60;12.05;;;3.70;99.90;;;;;;5102699;28;20227;-70
2021/11/17 08:27:31;;;;;;;18.40;11.05;;;3.60;99.90;;;;;;5094976;28;20239;-69
2021/11/17 08:30:02;;;;;;;20.23;11.68;;;3.50;99.90;;;;;;5090223;28;20220;-69
2021/11/17 08:32:32;;;;;;;29.27;12.57;;;3.50;99.90;;;;;;5098182;28;20218;-69
2021/11/17 08:35:03;;;;;;;17.77;12.50;;;3.60;99.90;;;;;;5081261;28;20215;-69
2021/11/17 08:37:34;;;;;;;31.88;12.32;;;3.60;99.90;;;;;;5090553;28;20216;-69
2021/11/17 08:40:09;;;;;;;16.75;11.07;;;3.60;99.90;;;;;;5088935;28;20218;-70
2021/11/17 08:42:42;;;;;;;24.50;12.55;;;3.60;99.90;;;;;;5090564;28;20223;-69
2021/11/17 08:45:14;;;;;;;20.70;11.50;;;3.60;99.90;;;;;;5084916;28;20630;-69
2021/11/17 08:47:46;;;;;;;20.60;12.75;;;3.60;99.90;;;;;;5102354;28;20614;-69
2021/11/17 08:50:18;;;;;;;26.17;12.52;;;3.60;99.90;;;;;;5092696;28;20219;-70
2021/11/17 08:52:49;;;;;;;18.65;13.93;;;3.70;99.90;;;;;;5090702;28;20215;-69
2021/11/17 08:55:21;;;;;;;15.98;11.25;;;3.60;99.90;;;;;;5085748;28;20215;-69
2021/11/17 08:57:54;;;;;;;16.63;11.80;;;3.60;99.90;;;;;;5103477;28;20237;-69
2021/11/17 09:00:27;;;;;;;16.10;11.60;;;3.60;99.90;;;;;;5088687;28;20652;-69
2021/11/17 09:02:58;;;;;;;18.48;13.02;;;3.60;99.90;;;;;;5099728;28;20305;-69
2021/11/17 09:05:33;;;;;;;171.63;40.67;;;3.70;99.90;;;;;;5092331;28;20224;-69
2021/11/17 09:08:04;;;;;;;1827.70;349.63;;;3.70;99.90;;;;;;5086764;28;20211;-69
2021/11/17 09:10:38;;;;;;;1999.90;628.05;;;3.70;99.90;;;;;;5098516;28;20688;-69
2021/11/17 09:13:11;;;;;;;12.90;11.10;;;3.80;99.90;;;;;;5078774;28;20215;-69
2021/11/17 09:15:47;;;;;;;17.48;10.93;;;3.80;99.90;;;;;;5080720;28;20290;-69
2021/11/17 09:18:19;;;;;;;15.20;12.25;;;3.70;99.90;;;;;;5089476;28;20219;-70
2021/11/17 09:20:51;;;;;;;11.73;9.60;;;3.60;99.90;;;;;;5089062;28;20217;-69
2021/11/17 09:23:23;;;;;;;11.50;9.07;;;3.60;99.90;;;;;;5106917;28;20223;-69
2021/11/17 09:25:56;;;;;;;15.43;10.55;;;3.70;99.90;;;;;;5091929;28;20251;-69
2021/11/17 09:28:29;;;;;;;16.98;11.35;;;3.70;99.90;;;;;;5101567;28;20216;-69
2021/11/17 09:31:02;;;;;;;19.80;11.23;;;3.70;99.90;;;;;;5098534;28;20268;-69
2021/11/17 09:33:37;;;;;;;15.20;10.05;;;3.80;99.90;;;;;;5089262;28;20298;-69
2021/11/17 09:36:08;;;;;;;15.98;10.35;;;3.70;99.90;;;;;;5093599;28;20200;-69
2021/11/17 09:38:40;;;;;;;22.83;11.05;;;3.70;99.90;;;;;;5099325;28;20212;-69
2021/11/17 09:41:13;;;;;;;12.70;9.30;;;3.60;99.90;;;;;;5098331;28;20208;-69
2021/11/17 09:43:50;;;;;;;17.00;11.10;;;3.60;99.90;;;;;;5101761;28;20302;-69
2021/11/17 09:46:24;;;;;;;12.15;10.00;;;3.60;99.90;;;;;;5092081;28;20204;-70
2021/11/17 09:48:58;;;;;;;13.48;9.90;;;3.50;99.90;;;;;;5107084;28;20215;-70
2021/11/17 09:51:35;;;;;;;11.93;10.05;;;3.40;99.90;;;;;;5090360;28;20235;-70
2021/11/17 09:54:15;;;;;;;14.00;9.70;;;3.40;99.90;;;;;;5078842;28;20208;-70
2021/11/17 09:56:48;;;;;;;14.27;9.60;;;3.30;99.90;;;;;;5094077;28;20649;-71
2021/11/17 09:59:25;;;;;;;12.50;9.13;;;3.30;99.90;;;;;;5105259;28;20643;-69
2021/11/17 10:02:03;;;;;;;293.33;56.60;;;3.20;99.90;;;;;;5104338;28;20234;-70
2021/11/17 10:04:40;;;;;;;12.65;9.43;;;3.20;99.90;;;;;;5092698;28;20677;-69
2021/11/17 10:13:19;;;;;;;14.50;7.38;;;3.40;99.90;;;;;;5091817;28;20220;-70
2021/11/17 10:15:54;;;;;;;12.13;8.80;;;3.20;99.90;;;;;;5089089;28;20248;-69
2021/11/17 10:18:33;;;;;;;9.82;7.68;;;3.20;99.90;;;;;;5107306;28;20216;-75
2021/11/17 10:21:09;;;;;;;9.77;8.02;;;3.20;99.90;;;;;;5108695;28;20555;-70
2021/11/17 10:24:00;;;;;;;10.43;8.48;;;3.20;99.90;;;;;;5108091;28;20637;-69
2021/11/17 10:26:31;;;;;;;11.45;8.90;;;3.20;99.90;;;;;;5108368;28;20236;-69
2021/11/17 10:29:05;;;;;;;11.07;8.80;;;3.20;99.90;;;;;;5106096;28;20207;-69
2021/11/17 10:31:55;;;;;;;11.98;10.07;;;3.20;99.90;;;;;;5104633;28;20223;-70
2021/11/17 10:34:31;;;;;;;15.73;9.80;;;3.30;99.90;;;;;;5101042;28;20286;-69
2021/11/17 10:37:05;;;;;;;17.27;10.10;;;3.30;99.90;;;;;;5102058;28;20709;-69
2021/11/17 10:39:46;;;;;;;15.02;10.98;;;3.40;99.90;;;;;;5092397;28;20218;-75
2021/11/17 10:42:31;;;;;;;13.75;10.98;;;3.40;99.90;;;;;;5092962;28;20555;-70
2021/11/17 10:45:03;;;;;;;17.42;11.10;;;3.40;99.90;;;;;;5093502;28;20232;-70
2021/11/17 10:47:53;;;;;;;17.00;12.25;;;3.50;99.90;;;;;;5090593;28;20216;-70
2021/11/17 10:50:29;;;;;;;17.67;11.88;;;3.50;99.90;;;;;;5091209;28;20218;-69
2021/11/17 10:53:02;;;;;;;751.40;122.88;;;3.50;99.90;;;;;;5106640;28;20208;-72
2021/11/17 10:55:36;;;;;;;19.05;13.25;;;3.60;99.90;;;;;;5089527;28;20209;-72
2021/11/17 10:58:10;;;;;;;26.83;14.73;;;3.60;99.90;;;;;;5092184;28;20300;-71
2021/11/17 11:00:43;;;;;;;1999.90;729.22;;;3.50;99.90;;;;;;5085525;28;20690;-70
2021/11/17 11:03:18;;;;;;;18.60;13.20;;;3.60;99.90;;;;;;5091356;28;20224;-69
2021/11/17 11:05:52;;;;;;;16.13;11.25;;;3.60;99.90;;;;;;5083148;28;20223;-72
2021/11/17 11:08:26;;;;;;;17.08;11.85;;;3.40;99.90;;;;;;5101166;28;20220;-70
2021/11/17 11:11:01;;;;;;;25.02;13.15;;;3.40;99.90;;;;;;5096932;28;20224;-70
2021/11/17 11:13:37;;;;;;;20.10;12.60;;;3.40;99.90;;;;;;5092015;28;20227;-70
2021/11/17 11:16:21;;;;;;;19.98;13.27;;;3.40;99.90;;;;;;5096961;28;20594;-75
2021/11/17 11:18:57;;;;;;;19.13;14.35;;;3.40;99.90;;;;;;5111811;28;20400;-70
2021/11/17 11:22:03;;;;;;;22.90;15.43;;;3.40;99.90;;;;;;5094634;28;20213;-70
2021/11/17 11:24:35;;;;;;;22.05;13.82;;;3.50;99.90;;;;;;5094267;28;20611;-69
2021/11/17 11:27:31;;;;;;;22.10;14.25;;;3.50;99.90;;;;;;5104326;28;20258;-69
2021/11/17 11:30:46;;;;;;;32.92;15.30;;;3.50;99.90;;;;;;5085740;28;20208;-71
2021/11/17 11:33:30;;;;;;;34.13;13.65;;;3.70;99.90;;;;;;5087079;28;20216;-69
2021/11/17 11:36:36;;;;;;;37.28;14.35;;;3.80;99.90;;;;;;5079032;28;20217;-73
2021/11/17 11:39:42;;;;;;;29.63;14.48;;;3.90;99.90;;;;;;5099937;28;20230;-69
2021/11/17 11:42:59;;;;;;;30.42;13.45;;;3.90;99.90;;;;;;5108209;28;20528;-75
2021/11/17 11:45:42;;;;;;;30.85;14.52;;;4.00;99.90;;;;;;5077134;28;20230;-75
2021/11/17 11:48:36;;;;;;;31.58;13.25;;;4.00;99.90;;;;;;5099135;28;20657;-70
2021/11/17 11:51:24;;;;;;;323.38;54.33;;;4.10;99.90;;;;;;5090176;27;20224;-76
2021/11/17 11:54:12;;;;;;;1999.90;429.63;;;4.20;99.90;;;;;;5089989;28;20212;-71
2021/11/17 11:56:48;;;;;;;405.48;65.75;;;4.30;99.90;;;;;;5100117;28;20561;-72
2021/11/17 11:59:25;;;;;;;947.92;140.85;;;4.30;99.90;;;;;;5089933;28;20212;-72
2021/11/17 12:02:13;;;;;;;24.75;13.60;;;4.30;99.90;;;;;;5089892;28;20219;-70
2021/11/17 12:04:46;;;;;;;17.88;11.38;;;4.20;99.90;;;;;;5088314;28;20212;-70
2021/11/17 12:07:20;;;;;;;20.48;12.50;;;4.10;99.90;;;;;;5102841;28;20577;-73
2021/11/17 12:10:00;;;;;;;17.05;12.68;;;3.90;99.90;;;;;;5105076;28;20214;-70
2021/11/17 12:12:33;;;;;;;19.48;12.25;;;3.90;99.90;;;;;;5088056;28;20212;-77
2021/11/17 12:15:24;;;;;;;19.40;12.48;;;3.80;99.90;;;;;;5099286;28;20263;-69
2021/11/17 12:18:11;;;;;;;17.15;11.95;;;3.80;99.90;;;;;;5083051;28;20326;-72
2021/11/17 12:20:45;;;;;;;19.13;12.05;;;3.70;99.90;;;;;;5094758;28;20216;-69
2021/11/17 12:23:24;;;;;;;17.30;11.15;;;3.60;99.90;;;;;;5084594;28;20220;-69
2021/11/17 12:26:02;;;;;;;19.27;12.40;;;3.50;99.90;;;;;;5094740;28;20220;-69
2021/11/17 12:28:33;;;;;;;16.75;11.52;;;3.50;99.90;;;;;;5108161;28;20231;-70
2021/11/17 12:31:08;;;;;;;22.02;12.63;;;3.60;99.90;;;;;;5088713;28;20215;-71
2021/11/17 12:33:47;;;;;;;18.05;11.38;;;3.50;99.90;;;;;;5102112;28;20238;-73
2021/11/17 12:36:30;;;;;;;18.77;10.73;;;3.60;99.90;;;;;;5078088;28;20592;-73
2021/11/17 12:39:10;;;;;;;17.40;10.82;;;3.50;99.90;;;;;;5101630;28;20211;-70
2021/11/17 12:41:42;;;;;;;19.60;11.88;;;3.50;99.90;;;;;;5090461;28;20216;-70
2021/11/17 12:44:23;;;;;;;26.00;13.88;;;3.50;99.90;;;;;;5088667;28;20227;-69
2021/11/17 12:47:06;;;;;;;1999.90;468.20;;;3.60;99.90;;;;;;5090442;28;20243;-71
2021/11/17 12:49:41;;;;;;;1654.47;255.57;;;3.60;99.90;;;;;;5087385;28;20326;-70
2021/11/17 12:52:24;;;;;;;895.13;139.70;;;3.70;99.90;;;;;;5106489;28;20653;-69
2021/11/17 12:54:59;;;;;;;23.38;12.65;;;3.50;99.90;;;;;;5081868;28;20239;-73
2021/11/17 12:57:34;;;;;;;17.23;10.38;;;3.40;99.90;;;;;;5090381;28;20203;-69
2021/11/17 13:00:40;;;;;;;17.38;10.90;;;3.20;99.90;;;;;;5088621;28;20208;-73
2021/11/17 13:03:32;;;;;;;14.68;10.80;;;3.20;99.90;;;;;;5086082;28;20658;-69
2021/11/17 13:06:07;;;;;;;14.95;9.15;;;3.20;99.90;;;;;;5086216;28;20232;-70
2021/11/17 13:08:39;;;;;;;14.13;10.00;;;3.20;99.90;;;;;;5083260;28;20243;-68
2021/11/17 13:11:21;;;;;;;16.83;10.57;;;3.10;99.90;;;;;;5090122;28;20216;-68
2021/11/17 13:13:55;;;;;;;12.35;9.50;;;3.10;99.90;;;;;;5081227;28;20208;-72
2021/11/17 13:16:28;;;;;;;14.35;9.80;;;3.00;99.90;;;;;;5088962;28;20234;-69
2021/11/17 13:19:02;;;;;;;11.43;8.77;;;2.90;99.90;;;;;;5096708;28;20214;-69
2021/11/17 13:21:37;;;;;;;11.80;8.75;;;2.90;99.90;;;;;;5107332;28;20224;-68
2021/11/17 13:24:28;;;;;;;10.38;8.10;;;2.90;99.90;;;;;;5104170;28;20579;-70
2021/11/17 13:27:34;;;;;;;9.25;7.07;;;2.80;99.90;;;;;;5097308;28;20726;-69
2021/11/17 13:30:30;;;;;;;14.60;9.05;;;2.80;99.90;;;;;;5087221;28;20212;-70
2021/11/17 13:33:16;;;;;;;56.42;16.05;;;2.80;99.90;;;;;;5089170;28;20208;-70
2021/11/17 13:35:59;;;;;;;1999.90;326.38;;;2.90;99.90;;;;;;5103799;28;20592;-69
2021/11/17 13:38:30;;;;;;;1105.18;179.02;;;2.90;99.90;;;;;;5104377;28;20314;-71
2021/11/17 13:41:04;;;;;;;1999.90;496.98;;;3.00;99.90;;;;;;5110337;28;20213;-71
2021/11/17 13:43:39;;;;;;;31.63;9.40;;;3.00;99.90;;;;;;5104951;28;20211;-71
2021/11/17 13:46:16;;;;;;;16.67;9.02;;;3.00;99.90;;;;;;5105024;28;20208;-70
2021/11/17 13:48:49;;;;;;;8.90;6.93;;;2.80;99.90;;;;;;5106424;28;20646;-70
2021/11/17 13:51:24;;;;;;;7.43;6.60;;;2.80;99.90;;;;;;5081589;28;20216;-71
2021/11/17 13:53:56;;;;;;;12.40;7.90;;;2.70;99.90;;;;;;5101050;28;20216;-69
2021/11/17 13:56:29;;;;;;;12.32;7.00;;;2.60;99.90;;;;;;5104158;28;20674;-75
2021/11/17 13:59:00;;;;;;;9.35;7.32;;;2.60;99.90;;;;;;5104988;28;20227;-69
2021/11/17 14:01:31;;;;;;;10.50;7.30;;;2.50;99.90;;;;;;5092056;28;20212;-71
2021/11/17 14:04:02;;;;;;;9.55;7.07;;;2.50;99.90;;;;;;5102556;28;20685;-73
2021/11/17 14:06:34;;;;;;;13.10;7.85;;;2.50;99.90;;;;;;5093145;28;20597;-73
2021/11/17 14:09:06;;;;;;;10.10;6.93;;;2.50;99.90;;;;;;5091820;28;20249;-75
2021/11/17 14:11:37;;;;;;;11.10;8.02;;;2.40;99.90;;;;;;5093577;28;20208;-70
2021/11/17 14:14:08;;;;;;;12.73;8.07;;;2.40;99.90;;;;;;5092531;28;20595;-69
2021/11/17 14:16:39;;;;;;;10.45;7.47;;;2.40;99.90;;;;;;5093752;28;20212;-73
2021/11/17 14:19:10;;;;;;;9.13;7.53;;;2.40;99.90;;;;;;5099349;28;20215;-69
2021/11/17 14:21:43;;;;;;;341.23;63.25;;;2.40;99.90;;;;;;5103938;28;20295;-69
2021/11/17 14:24:14;;;;;;;13.45;7.97;;;2.40;99.90;;;;;;5102615;28;20200;-68
2021/11/17 14:26:48;;;;;;;1831.63;295.60;;;2.50;99.90;;;;;;5093020;28;20710;-68
2021/11/17 14:29:22;;;;;;;216.10;39.67;;;2.70;99.90;;;;;;5108331;28;20281;-70
2021/11/17 14:31:56;;;;;;;18.02;10.32;;;2.90;99.90;;;;;;5100728;28;20215;-68
2021/11/17 14:34:28;;;;;;;20.25;10.23;;;2.80;99.90;;;;;;5091856;28;20211;-69
2021/11/17 14:37:05;;;;;;;27.77;11.93;;;2.90;99.90;;;;;;5106999;28;20666;-69
2021/11/17 14:39:37;;;;;;;30.45;12.10;;;2.90;99.90;;;;;;5090052;28;20673;-69
2021/11/17 14:42:10;;;;;;;28.85;12.55;;;3.00;99.90;;;;;;5092796;28;20216;-69
2021/11/17 14:44:41;;;;;;;43.38;14.40;;;3.00;99.90;;;;;;5090888;28;20231;-68
2021/11/17 14:47:13;;;;;;;32.42;13.73;;;3.10;99.90;;;;;;5092914;28;20242;-68
2021/11/17 14:49:44;;;;;;;22.02;13.32;;;3.00;99.90;;;;;;5082230;28;20363;-69
2021/11/17 14:52:19;;;;;;;24.35;12.93;;;3.10;99.90;;;;;;5085891;28;20221;-69
2021/11/17 14:54:50;;;;;;;23.48;12.88;;;3.10;99.90;;;;;;5078856;28;20219;-69
2021/11/17 14:57:21;;;;;;;16.55;12.35;;;3.10;99.90;;;;;;5091717;28;20240;-69
2021/11/17 14:59:53;;;;;;;20.13;12.10;;;3.10;99.90;;;;;;5099853;28;20657;-69
2021/11/17 15:02:26;;;;;;;20.60;13.52;;;3.20;99.90;;;;;;5106076;28;20208;-69
2021/11/17 15:04:57;;;;;;;23.38;15.65;;;3.20;99.90;;;;;;5101236;28;20301;-69
2021/11/17 15:07:29;;;;;;;22.63;14.10;;;3.10;99.90;;;;;;5100092;28;20715;-68
2021/11/17 15:10:00;;;;;;;234.35;47.88;;;3.20;99.90;;;;;;5096609;28;20212;-68
2021/11/17 15:12:35;;;;;;;1971.43;389.85;;;3.10;99.90;;;;;;5090854;28;20216;-68
2021/11/17 15:15:10;;;;;;;1999.90;552.78;;;3.20;99.90;;;;;;5104771;28;20226;-69
2021/11/17 15:17:41;;;;;;;36.67;15.35;;;3.20;99.90;;;;;;5095374;28;20218;-68
2021/11/17 15:20:13;;;;;;;21.20;15.23;;;3.20;99.90;;;;;;5082781;28;20261;-69
2021/11/17 15:22:47;;;;;;;20.20;14.50;;;3.20;99.90;;;;;;5092431;28;20223;-69
2021/11/17 15:25:20;;;;;;;20.92;13.82;;;3.20;99.90;;;;;;5088418;28;20241;-69
2021/11/17 15:27:53;;;;;;;22.80;13.60;;;3.10;99.90;;;;;;5095282;28;20698;-69
2021/11/17 15:30:26;;;;;;;22.02;14.60;;;3.10;99.90;;;;;;5080926;28;20212;-69
2021/11/17 15:32:58;;;;;;;22.38;14.07;;;3.10;99.90;;;;;;5108366;28;20634;-68
2021/11/17 15:35:31;;;;;;;18.02;12.55;;;3.10;99.90;;;;;;5095991;28;20216;-68
2021/11/17 15:38:05;;;;;;;20.58;14.40;;;3.20;99.90;;;;;;5091765;28;20209;-68
2021/11/17 15:40:38;;;;;;;18.10;12.95;;;3.20;99.90;;;;;;5101467;28;20215;-69
2021/11/17 15:43:10;;;;;;;19.80;12.93;;;3.30;99.90;;;;;;5079324;28;20636;-69
2021/11/17 15:45:41;;;;;;;13.55;11.10;;;3.30;99.90;;;;;;5088891;28;20580;-68
2021/11/17 15:48:13;;;;;;;19.20;12.90;;;3.40;99.90;;;;;;5091486;28;20231;-69
2021/11/17 15:50:48;;;;;;;20.42;13.88;;;3.50;99.90;;;;;;5100895;28;20208;-68
2021/11/17 15:53:20;;;;;;;16.33;12.48;;;3.60;99.90;;;;;;5099842;28;20219;-69
2021/11/17 15:55:52;;;;;;;1999.90;489.45;;;3.70;99.90;;;;;;5105455;28;20239;-69
2021/11/17 15:58:24;;;;;;;1098.00;189.63;;;3.80;99.90;;;;;;5091642;28;20208;-69
2021/11/17 16:00:55;;;;;;;1999.90;483.08;;;3.80;99.90;;;;;;5090235;28;20212;-69
2021/11/17 16:03:26;;;;;;;15.00;11.95;;;4.00;99.90;;;;;;5109296;28;20600;-69
2021/11/17 16:05:58;;;;;;;15.27;11.95;;;3.90;99.90;;;;;;5101243;28;20291;-68
2021/11/17 16:08:31;;;;;;;15.20;11.18;;;3.80;99.90;;;;;;5094885;28;20232;-69
2021/11/17 16:11:02;;;;;;;12.32;10.35;;;3.80;99.90;;;;;;5089108;28;20697;-69